Time,TemperatureF,DewpointF,PressureIn,WindDirection,WindDirectionDegrees,WindSpeedMPH,WindSpeedGustMPH,Humidity,HourlyPrecipIn,Conditions,Clouds,dailyrainin,SolarRadiationWatts/m^2,SoftwareType,DateUTC
2013-07-11 00:02:00,76.0,73.2,30.02,North,357,0.0,0.0,91,0.00,,,0.00,0,Wunderground v.1.15,2013-07-11 04:02:00,
2013-07-11 00:07:00,76.0,73.2,30.02,North,357,0.0,0.0,91,0.00,,,0.00,0,Wunderground v.1.15,2013-07-11 04:07:00,
2013-07-11 00:17:00,76.0,73.2,30.02,North,3,0.0,0.0,91,0.00,,,0.00,0,Wunderground v.1.15,2013-07-11 04:17:00,
2013-07-11 00:22:00,76.0,73.5,30.02,ENE,69,0.0,1.0,92,0.00,,,0.00,0,Wunderground v.1.15,2013-07-11 04:22:00,
2013-07-11 00:27:00,76.0,73.5,30.02,ENE,65,1.0,2.0,92,0.00,,,0.00,0,Wunderground v.1.15,2013-07-11 04:27:00,
2013-07-11 00:32:00,76.0,73.2,30.02,ENE,75,2.0,2.0,91,0.00,,,0.00,0,Wunderground v.1.15,2013-07-11 04:32:00,
2013-07-11 00:42:00,76.0,73.5,30.02,ENE,75,1.0,2.0,92,0.00,,,0.00,0,Wunderground v.1.15,2013-07-11 04:42:00,
2013-07-11 00:47:00,75.8,73.3,30.02,ENE,75,1.0,3.0,92,0.00,,,0.00,0,Wunderground v.1.15,2013-07-11 04:47:00,
2013-07-11 00:52:00,75.8,73.3,30.01,ENE,75,1.0,1.0,92,0.00,,,0.00,0,Wunderground v.1.15,2013-07-11 04:52:00,
2013-07-11 00:57:00,75.8,73.3,30.01,ENE,75,1.0,1.0,92,0.00,,,0.00,0,Wunderground v.1.15,2013-07-11 04:57:00,
2013-07-11 01:12:00,76.0,73.5,30.01,ENE,75,0.0,0.0,92,0.00,,,0.00,0,Wunderground v.1.15,2013-07-11 05:12:00,
2013-07-11 01:17:00,76.0,73.5,30.01,ENE,75,0.0,0.0,92,0.00,,,0.00,0,Wunderground v.1.15,2013-07-11 05:17:00,
2013-07-11 01:22:00,76.0,73.5,30.01,ENE,75,0.0,0.0,92,0.00,,,0.00,0,Wunderground v.1.15,2013-07-11 05:22:00,
2013-07-11 01:32:00,76.0,73.5,30.00,ENE,75,0.0,0.0,92,0.00,,,0.00,0,Wunderground v.1.15,2013-07-11 05:32:00,
2013-07-11 01:42:00,75.8,73.3,30.00,ENE,75,0.0,0.0,92,0.00,,,0.00,0,Wunderground v.1.15,2013-07-11 05:42:00,
2013-07-11 01:47:00,75.8,73.3,29.99,ENE,75,1.0,2.0,92,0.00,,,0.00,0,Wunderground v.1.15,2013-07-11 05:47:00,
2013-07-11 01:57:00,75.8,73.3,29.99,ENE,75,0.0,1.0,92,0.00,,,0.00,0,Wunderground v.1.15,2013-07-11 05:57:00,
2013-07-11 02:02:00,75.8,73.3,29.99,ENE,75,0.0,0.0,92,0.00,,,0.00,0,Wunderground v.1.15,2013-07-11 06:02:00,
2013-07-11 02:12:00,75.8,73.3,29.99,ENE,73,0.0,0.0,92,0.00,,,0.00,0,Wunderground v.1.15,2013-07-11 06:12:00,
2013-07-11 02:17:00,75.8,73.3,29.99,ENE,75,0.0,0.0,92,0.00,,,0.00,0,Wunderground v.1.15,2013-07-11 06:17:00,
2013-07-11 02:22:00,75.8,73.3,29.99,ENE,76,0.0,0.0,92,0.00,,,0.00,0,Wunderground v.1.15,2013-07-11 06:22:00,
2013-07-11 02:32:00,75.8,73.3,29.99,ENE,75,0.0,0.0,92,0.00,,,0.00,0,Wunderground v.1.15,2013-07-11 06:32:00,
2013-07-11 02:42:00,75.8,73.3,29.98,ENE,73,0.0,0.0,92,0.00,,,0.00,0,Wunderground v.1.15,2013-07-11 06:42:00,
2013-07-11 02:47:00,75.8,73.6,29.98,ENE,75,0.0,0.0,93,0.00,,,0.00,0,Wunderground v.1.15,2013-07-11 06:47:00,
2013-07-11 02:52:00,75.8,73.6,29.98,ENE,75,0.0,0.0,93,0.00,,,0.00,0,Wunderground v.1.15,2013-07-11 06:52:00,
2013-07-11 03:02:00,75.8,73.6,29.98,ENE,75,1.0,2.0,93,0.00,,,0.00,0,Wunderground v.1.15,2013-07-11 07:02:00,
2013-07-11 03:07:00,75.8,73.6,29.97,ENE,75,1.0,2.0,93,0.00,,,0.00,0,Wunderground v.1.15,2013-07-11 07:07:00,
2013-07-11 03:17:00,76.0,73.8,29.97,ENE,75,1.0,1.0,93,0.00,,,0.00,0,Wunderground v.1.15,2013-07-11 07:17:00,
2013-07-11 03:22:00,76.0,73.8,29.97,ENE,75,1.0,1.0,93,0.00,,,0.00,0,Wunderground v.1.15,2013-07-11 07:22:00,
2013-07-11 03:32:00,76.1,73.9,29.97,ENE,75,1.0,1.0,93,0.00,,,0.00,0,Wunderground v.1.15,2013-07-11 07:32:00,
2013-07-11 03:42:00,76.3,74.1,29.97,ENE,75,0.0,0.0,93,0.00,,,0.00,0,Wunderground v.1.15,2013-07-11 07:42:00,
2013-07-11 03:47:00,76.3,74.1,29.97,ENE,75,0.0,0.0,93,0.00,,,0.00,0,Wunderground v.1.15,2013-07-11 07:47:00,
2013-07-11 03:52:00,76.3,74.1,29.97,ENE,75,0.0,0.0,93,0.00,,,0.00,0,Wunderground v.1.15,2013-07-11 07:52:00,
2013-07-11 04:02:00,76.3,74.1,29.97,ENE,75,0.0,0.0,93,0.00,,,0.00,0,Wunderground v.1.15,2013-07-11 08:02:00,
2013-07-11 04:07:00,76.3,74.1,29.97,ENE,75,0.0,0.0,93,0.00,,,0.00,0,Wunderground v.1.15,2013-07-11 08:07:00,
2013-07-11 04:17:00,76.5,74.3,29.97,ENE,75,1.0,1.0,93,0.00,,,0.00,0,Wunderground v.1.15,2013-07-11 08:17:00,
2013-07-11 04:27:00,76.7,74.5,29.97,SE,136,3.0,5.0,93,0.00,,,0.00,0,Wunderground v.1.15,2013-07-11 08:27:00,
2013-07-11 04:32:00,76.7,74.8,29.97,ESE,121,2.0,2.0,94,0.00,,,0.00,0,Wunderground v.1.15,2013-07-11 08:32:00,
2013-07-11 04:37:00,76.8,74.9,29.97,SE,141,2.0,2.0,94,0.00,,,0.00,0,Wunderground v.1.15,2013-07-11 08:37:00,
2013-07-11 04:47:00,76.8,74.9,29.97,SE,131,2.0,3.0,94,0.00,,,0.00,0,Wunderground v.1.15,2013-07-11 08:47:00,
2013-07-11 04:52:00,76.8,74.9,29.97,SE,131,2.0,2.0,94,0.00,,,0.00,0,Wunderground v.1.15,2013-07-11 08:52:00,
2013-07-11 04:57:00,76.8,74.9,29.96,SE,131,1.0,2.0,94,0.00,,,0.00,0,Wunderground v.1.15,2013-07-11 08:57:00,
2013-07-11 05:07:00,76.8,74.9,29.97,SE,143,1.0,2.0,94,0.00,,,0.00,0,Wunderground v.1.15,2013-07-11 09:07:00,
2013-07-11 05:17:00,76.8,74.9,29.97,SSE,160,2.0,3.0,94,0.00,,,0.00,0,Wunderground v.1.15,2013-07-11 09:17:00,
2013-07-11 05:22:00,76.8,74.9,29.97,SSE,164,2.0,2.0,94,0.00,,,0.00,0,Wunderground v.1.15,2013-07-11 09:22:00,
2013-07-11 05:27:00,76.7,74.8,29.98,SSE,165,1.0,2.0,94,0.00,,,0.00,0,Wunderground v.1.15,2013-07-11 09:27:00,
2013-07-11 05:32:00,76.7,74.8,29.98,SSE,165,0.0,0.0,94,0.00,,,0.00,0,Wunderground v.1.15,2013-07-11 09:32:00,
2013-07-11 05:42:00,76.7,74.8,29.98,SSE,165,0.0,0.0,94,0.00,,,0.00,0,Wunderground v.1.15,2013-07-11 09:42:00,
2013-07-11 05:47:00,76.5,74.6,29.98,SSE,164,0.0,0.0,94,0.00,,,0.00,0,Wunderground v.1.15,2013-07-11 09:47:00,
2013-07-11 05:57:00,76.5,74.6,29.98,SSE,165,0.0,0.0,94,0.00,,,0.00,0,Wunderground v.1.15,2013-07-11 09:57:00,
2013-07-11 06:02:00,76.5,74.6,29.98,SSE,165,0.0,0.0,94,0.00,,,0.00,0,Wunderground v.1.15,2013-07-11 10:02:00,
2013-07-11 06:12:00,76.3,74.4,29.98,SSE,165,1.0,1.0,94,0.00,,,0.00,0,Wunderground v.1.15,2013-07-11 10:12:00,
2013-07-11 06:17:00,76.1,74.2,29.98,SSE,165,1.0,1.0,94,0.00,,,0.00,0,Wunderground v.1.15,2013-07-11 10:17:00,
2013-07-11 06:22:00,76.1,74.2,29.98,SSE,165,1.0,2.0,94,0.00,,,0.00,0,Wunderground v.1.15,2013-07-11 10:22:00,
2013-07-11 06:32:00,76.0,74.1,29.99,SSE,165,0.0,0.0,94,0.00,,,0.00,0,Wunderground v.1.15,2013-07-11 10:32:00,
2013-07-11 06:37:00,76.0,74.1,29.98,SSE,165,0.0,0.0,94,0.00,,,0.00,0,Wunderground v.1.15,2013-07-11 10:37:00,
2013-07-11 06:47:00,76.0,74.1,29.98,SSE,165,1.0,1.0,94,0.00,,,0.00,0,Wunderground v.1.15,2013-07-11 10:47:00,
2013-07-11 06:57:00,76.0,74.1,29.99,SSE,165,0.0,1.0,94,0.00,,,0.00,5,Wunderground v.1.15,2013-07-11 10:57:00,
2013-07-11 07:02:00,76.0,74.1,29.99,SSE,165,0.0,0.0,94,0.00,,,0.00,9,Wunderground v.1.15,2013-07-11 11:02:00,
2013-07-11 07:12:00,76.1,74.2,29.98,SSE,160,1.0,1.0,94,0.00,,,0.00,12,Wunderground v.1.15,2013-07-11 11:12:00,
2013-07-11 07:22:00,76.3,74.4,29.99,SE,140,2.0,2.0,94,0.00,,,0.00,18,Wunderground v.1.15,2013-07-11 11:22:00,
2013-07-11 07:32:00,76.7,74.8,29.99,SE,126,3.0,3.0,94,0.00,,,0.00,33,Wunderground v.1.15,2013-07-11 11:32:00,
2013-07-11 07:37:00,76.7,74.8,29.98,ESE,110,3.0,3.0,94,0.00,,,0.00,32,Wunderground v.1.15,2013-07-11 11:37:00,
2013-07-11 07:47:00,77.0,75.1,29.98,SE,124,3.0,6.0,94,0.00,,,0.00,32,Wunderground v.1.15,2013-07-11 11:47:00,
2013-07-11 07:52:00,77.0,75.1,29.98,ESE,121,4.0,4.0,94,0.00,,,0.00,32,Wunderground v.1.15,2013-07-11 11:52:00,
2013-07-11 08:02:00,77.4,75.5,29.98,SE,133,3.0,5.0,94,0.00,,,0.00,40,Wunderground v.1.15,2013-07-11 12:02:00,
2013-07-11 08:12:00,77.7,75.8,29.98,SSE,165,3.0,6.0,94,0.00,,,0.00,46,Wunderground v.1.15,2013-07-11 12:12:00,
2013-07-11 08:17:00,77.7,75.5,29.98,SSE,150,5.0,6.0,93,0.00,,,0.00,56,Wunderground v.1.15,2013-07-11 12:17:00,
2013-07-11 08:27:00,78.3,76.1,29.98,South,174,4.0,4.0,93,0.00,,,0.00,174,Wunderground v.1.15,2013-07-11 12:27:00,
2013-07-11 08:32:00,78.6,76.4,29.98,South,175,4.0,4.0,93,0.00,,,0.00,51,Wunderground v.1.15,2013-07-11 12:32:00,
2013-07-11 08:37:00,79.0,76.8,29.98,South,175,3.0,4.0,93,0.00,,,0.00,46,Wunderground v.1.15,2013-07-11 12:37:00,
2013-07-11 08:42:00,79.2,76.7,29.98,SE,133,3.0,3.0,92,0.00,,,0.00,42,Wunderground v.1.15,2013-07-11 12:42:00,
2013-07-11 08:52:00,79.6,76.7,29.98,SE,141,5.0,6.0,91,0.00,,,0.00,44,Wunderground v.1.15,2013-07-11 12:52:00,
2013-07-11 08:57:00,79.8,76.6,29.98,ESE,104,5.0,7.0,90,0.00,,,0.00,46,Wunderground v.1.15,2013-07-11 12:57:00,
2013-07-11 09:07:00,80.3,77.1,29.99,SSE,152,4.0,5.0,90,0.00,,,0.00,53,Wunderground v.1.15,2013-07-11 13:07:00,
2013-07-11 09:12:00,80.5,77.0,29.99,SE,140,4.0,8.0,89,0.00,,,0.00,60,Wunderground v.1.15,2013-07-11 13:12:00,
2013-07-11 09:17:00,80.7,76.8,29.99,South,191,5.0,8.0,88,0.00,,,0.00,97,Wunderground v.1.15,2013-07-11 13:17:00,
2013-07-11 09:22:00,81.1,76.9,29.99,SSE,165,4.0,4.0,87,0.00,,,0.00,157,Wunderground v.1.15,2013-07-11 13:22:00,
2013-07-11 09:37:00,82.8,76.4,29.99,ESE,113,6.0,6.0,81,0.00,,,0.00,165,Wunderground v.1.15,2013-07-11 13:37:00,
2013-07-11 09:42:00,83.0,76.6,29.99,South,186,6.0,6.0,81,0.00,,,0.00,181,Wunderground v.1.15,2013-07-11 13:42:00,
2013-07-11 09:47:00,83.2,75.6,29.99,SW,217,6.0,6.0,78,0.00,,,0.00,274,Wunderground v.1.15,2013-07-11 13:47:00,
2013-07-11 09:52:00,83.4,75.8,29.99,SE,126,5.0,10.0,78,0.00,,,0.00,274,Wunderground v.1.15,2013-07-11 13:52:00,
2013-07-11 09:57:00,84.5,77.6,29.99,SE,136,5.0,10.0,80,0.00,,,0.00,795,Wunderground v.1.15,2013-07-11 13:57:00,
2013-07-11 10:02:00,84.3,75.9,29.98,ESE,120,5.0,5.0,76,0.00,,,0.00,285,Wunderground v.1.15,2013-07-11 14:02:00,
2013-07-11 10:07:00,84.1,75.7,29.98,SE,126,5.0,5.0,76,0.00,,,0.00,246,Wunderground v.1.15,2013-07-11 14:07:00,
2013-07-11 10:17:00,83.8,75.8,29.99,SSE,161,4.0,5.0,77,0.00,,,0.00,218,Wunderground v.1.15,2013-07-11 14:17:00,
2013-07-11 10:22:00,84.5,75.7,29.99,SSE,152,3.0,3.0,75,0.00,,,0.00,778,Wunderground v.1.15,2013-07-11 14:22:00,
2013-07-11 10:32:00,84.5,74.5,29.99,South,191,5.0,5.0,72,0.00,,,0.00,422,Wunderground v.1.15,2013-07-11 14:32:00,
2013-07-11 10:37:00,84.5,74.9,29.99,SW,229,5.0,5.0,73,0.00,,,0.00,310,Wunderground v.1.15,2013-07-11 14:37:00,
2013-07-11 10:42:00,84.3,74.7,30.00,WNW,282,4.0,8.0,73,0.00,,,0.00,139,Wunderground v.1.15,2013-07-11 14:42:00,
2013-07-11 10:47:00,84.0,74.4,30.00,West,268,6.0,12.0,73,0.00,,,0.00,32,Wunderground v.1.15,2013-07-11 14:47:00,
2013-07-11 10:57:00,81.6,73.7,30.01,WNW,298,7.0,7.0,77,1.77,,,0.04,19,Wunderground v.1.15,2013-07-11 14:57:00,
2013-07-11 11:02:00,80.5,73.4,30.01,NNW,347,6.0,6.0,79,3.20,,,0.23,30,Wunderground v.1.15,2013-07-11 15:02:00,
2013-07-11 11:07:00,79.2,73.2,30.00,WSW,239,7.0,10.0,82,1.70,,,0.42,44,Wunderground v.1.15,2013-07-11 15:07:00,
2013-07-11 11:12:00,78.3,73.1,30.00,North,359,7.0,7.0,84,0.51,,,0.48,79,Wunderground v.1.15,2013-07-11 15:12:00,
2013-07-11 11:17:00,77.6,72.7,30.00,NW,306,7.0,10.0,85,0.12,,,0.49,84,Wunderground v.1.15,2013-07-11 15:17:00,
2013-07-11 11:22:00,77.2,73.0,30.00,West,277,7.0,7.0,87,0.06,,,0.49,69,Wunderground v.1.15,2013-07-11 15:22:00,
2013-07-11 11:32:00,76.7,72.9,30.01,NNW,346,4.0,4.0,88,0.15,,,0.51,99,Wunderground v.1.15,2013-07-11 15:32:00,
2013-07-11 11:37:00,76.5,73.0,30.01,North,6,1.0,4.0,89,0.79,,,0.52,116,Wunderground v.1.15,2013-07-11 15:37:00,
2013-07-11 11:42:00,76.1,73.0,30.01,ENE,58,1.0,1.0,90,0.31,,,0.56,121,Wunderground v.1.15,2013-07-11 15:42:00,
2013-07-11 11:47:00,76.1,73.3,30.01,North,0,1.0,3.0,91,0.25,,,0.58,134,Wunderground v.1.15,2013-07-11 15:47:00,
2013-07-11 11:57:00,76.1,73.6,30.01,SW,229,1.0,2.0,92,0.08,,,0.59,111,Wunderground v.1.15,2013-07-11 15:57:00,
2013-07-11 12:02:00,76.3,73.8,30.01,SW,236,0.0,0.0,92,0.05,,,0.59,125,Wunderground v.1.15,2013-07-11 16:02:00,
2013-07-11 12:07:00,76.7,74.5,30.01,SW,232,0.0,0.0,93,0.00,,,0.59,128,Wunderground v.1.15,2013-07-11 16:07:00,
2013-07-11 12:17:00,76.8,74.6,30.01,SE,134,3.0,7.0,93,0.00,,,0.60,143,Wunderground v.1.15,2013-07-11 16:17:00,
2013-07-11 12:22:00,76.8,74.6,30.01,SE,130,4.0,4.0,93,0.15,,,0.61,144,Wunderground v.1.15,2013-07-11 16:22:00,
2013-07-11 12:27:00,76.8,74.6,30.00,ESE,112,2.0,4.0,93,0.17,,,0.63,155,Wunderground v.1.15,2013-07-11 16:27:00,
2013-07-11 12:42:00,77.4,75.9,29.99,ESE,113,0.0,0.0,95,0.07,,,0.65,216,Wunderground v.1.15,2013-07-11 16:42:00,
2013-07-11 12:52:00,77.9,76.4,29.99,ESE,113,0.0,0.0,95,0.06,,,0.66,324,Wunderground v.1.15,2013-07-11 16:52:00,
2013-07-11 13:02:00,78.6,77.0,29.99,ESE,113,1.0,1.0,95,0.06,,,0.67,394,Wunderground v.1.15,2013-07-11 17:02:00,
2013-07-11 13:07:00,78.3,76.4,29.99,ESE,112,1.0,1.0,94,0.06,,,0.67,410,Wunderground v.1.15,2013-07-11 17:07:00,
2013-07-11 13:12:00,79.0,77.4,29.99,ESE,114,0.0,0.0,95,0.04,,,0.67,496,Wunderground v.1.15,2013-07-11 17:12:00,
2013-07-11 13:17:00,79.2,77.3,29.99,ESE,113,0.0,0.0,94,0.00,,,0.67,586,Wunderground v.1.15,2013-07-11 17:17:00,
2013-07-11 13:27:00,80.1,77.6,29.98,South,191,1.0,1.0,92,0.00,,,0.67,765,Wunderground v.1.15,2013-07-11 17:27:00,
2013-07-11 13:37:00,81.4,78.5,29.98,South,189,0.0,1.0,91,0.00,,,0.67,602,Wunderground v.1.15,2013-07-11 17:37:00,
2013-07-11 13:47:00,81.8,77.9,29.98,South,189,0.0,1.0,88,0.00,,,0.67,454,Wunderground v.1.15,2013-07-11 17:47:00,
2013-07-11 13:57:00,82.2,77.2,29.98,WSW,243,1.0,2.0,85,0.00,,,0.67,260,Wunderground v.1.15,2013-07-11 17:57:00,
2013-07-11 14:02:00,82.2,76.5,29.97,SSE,147,2.0,2.0,83,0.00,,,0.67,306,Wunderground v.1.15,2013-07-11 18:02:00,
2013-07-11 14:07:00,83.2,76.4,29.97,SW,216,2.0,2.0,80,0.00,,,0.67,341,Wunderground v.1.15,2013-07-11 18:07:00,
2013-07-11 14:17:00,84.0,73.6,29.96,SW,229,3.0,6.0,71,0.00,,,0.67,804,Wunderground v.1.15,2013-07-11 18:17:00,
2013-07-11 14:22:00,84.9,75.3,29.96,SW,220,3.0,7.0,73,0.00,,,0.67,674,Wunderground v.1.15,2013-07-11 18:22:00,
2013-07-11 14:32:00,84.7,73.8,29.96,SSW,193,5.0,5.0,70,0.00,,,0.67,501,Wunderground v.1.15,2013-07-11 18:32:00,
2013-07-11 14:42:00,84.7,74.3,29.96,SW,215,3.0,3.0,71,0.00,,,0.67,538,Wunderground v.1.15,2013-07-11 18:42:00,
2013-07-11 14:52:00,85.5,75.0,29.97,SW,220,4.0,7.0,71,0.00,,,0.67,683,Wunderground v.1.15,2013-07-11 18:52:00,
2013-07-11 15:02:00,85.7,74.4,29.96,SSW,213,6.0,7.0,69,0.00,,,0.67,841,Wunderground v.1.15,2013-07-11 19:02:00,
2013-07-11 15:12:00,85.9,74.5,29.96,SSW,198,6.0,6.0,69,0.00,,,0.67,750,Wunderground v.1.15,2013-07-11 19:12:00,
2013-07-11 15:17:00,85.9,74.5,29.96,SW,230,6.0,6.0,69,0.00,,,0.67,727,Wunderground v.1.15,2013-07-11 19:17:00,
2013-07-11 15:27:00,85.9,74.5,29.96,SSW,196,4.0,4.0,69,0.00,,,0.67,802,Wunderground v.1.15,2013-07-11 19:27:00,
2013-07-11 15:32:00,85.9,74.5,29.95,SW,224,5.0,6.0,69,0.00,,,0.67,630,Wunderground v.1.15,2013-07-11 19:32:00,
2013-07-11 15:42:00,87.0,76.5,29.95,WSW,246,6.0,9.0,71,0.00,,,0.67,1052,Wunderground v.1.15,2013-07-11 19:42:00,
2013-07-11 15:52:00,87.2,76.2,29.94,SW,227,6.0,7.0,70,0.00,,,0.67,955,Wunderground v.1.15,2013-07-11 19:52:00,
2013-07-11 16:07:00,86.3,74.5,29.94,WSW,239,6.0,7.0,68,0.00,,,0.67,194,Wunderground v.1.15,2013-07-11 20:07:00,
2013-07-11 16:12:00,85.7,74.4,29.94,SW,224,6.0,6.0,69,0.00,,,0.67,164,Wunderground v.1.15,2013-07-11 20:12:00,
2013-07-11 16:17:00,85.3,74.4,29.94,SW,233,6.0,8.0,70,0.00,,,0.67,213,Wunderground v.1.15,2013-07-11 20:17:00,
2013-07-11 16:32:00,85.3,74.8,29.93,SW,220,5.0,5.0,71,0.00,,,0.67,252,Wunderground v.1.15,2013-07-11 20:32:00,
2013-07-11 16:47:00,84.9,74.0,29.93,WSW,240,4.0,6.0,70,0.00,,,0.67,280,Wunderground v.1.15,2013-07-11 20:47:00,
2013-07-11 16:57:00,86.3,75.8,29.93,WSW,248,4.0,6.0,71,0.00,,,0.67,709,Wunderground v.1.15,2013-07-11 20:57:00,
2013-07-11 17:02:00,86.7,74.9,29.93,WSW,241,5.0,6.0,68,0.00,,,0.67,732,Wunderground v.1.15,2013-07-11 21:02:00,
2013-07-11 17:22:00,85.9,74.1,29.93,SW,223,3.0,3.0,68,0.00,,,0.67,102,Wunderground v.1.15,2013-07-11 21:22:00,
2013-07-11 17:32:00,85.1,73.8,29.92,WSW,248,4.0,4.0,69,0.00,,,0.67,408,Wunderground v.1.15,2013-07-11 21:32:00,
2013-07-11 17:37:00,84.9,74.4,29.92,WSW,247,4.0,5.0,71,0.00,,,0.67,500,Wunderground v.1.15,2013-07-11 21:37:00,
2013-07-11 17:42:00,85.1,74.2,29.92,WNW,288,4.0,5.0,70,0.00,,,0.67,500,Wunderground v.1.15,2013-07-11 21:42:00,
2013-07-11 17:57:00,85.1,75.1,29.92,West,267,4.0,5.0,72,0.00,,,0.67,428,Wunderground v.1.15,2013-07-11 21:57:00,
2013-07-11 18:07:00,85.5,74.6,29.92,SW,220,5.0,7.0,70,0.00,,,0.67,435,Wunderground v.1.15,2013-07-11 22:07:00,
2013-07-11 18:12:00,85.7,74.8,29.92,West,260,5.0,5.0,70,0.00,,,0.67,289,Wunderground v.1.15,2013-07-11 22:12:00,
2013-07-11 18:22:00,84.9,74.0,29.93,SSW,192,5.0,5.0,70,0.00,,,0.67,299,Wunderground v.1.15,2013-07-11 22:22:00,
2013-07-11 18:27:00,84.9,74.4,29.93,SW,217,4.0,5.0,71,0.00,,,0.67,318,Wunderground v.1.15,2013-07-11 22:27:00,
2013-07-11 18:42:00,85.1,73.8,29.93,West,260,5.0,5.0,69,0.00,,,0.67,405,Wunderground v.1.15,2013-07-11 22:42:00,
2013-07-11 18:52:00,85.1,73.8,29.93,SW,230,3.0,4.0,69,0.00,,,0.67,350,Wunderground v.1.15,2013-07-11 22:52:00,
2013-07-11 18:57:00,84.9,74.0,29.93,WNW,295,3.0,4.0,70,0.00,,,0.67,183,Wunderground v.1.15,2013-07-11 22:57:00,
2013-07-11 19:02:00,84.7,74.3,29.93,WNW,302,2.0,7.0,71,0.00,,,0.67,172,Wunderground v.1.15,2013-07-11 23:02:00,
2013-07-11 19:17:00,84.7,74.7,29.93,SW,220,2.0,3.0,72,0.00,,,0.67,137,Wunderground v.1.15,2013-07-11 23:17:00,
2013-07-11 19:22:00,84.7,75.1,29.93,NW,312,1.0,3.0,73,0.00,,,0.67,113,Wunderground v.1.15,2013-07-11 23:22:00,
2013-07-11 19:32:00,84.1,74.1,29.93,West,280,2.0,5.0,72,0.00,,,0.67,84,Wunderground v.1.15,2013-07-11 23:32:00,
2013-07-11 19:37:00,84.1,74.1,29.93,WSW,241,3.0,5.0,72,0.00,,,0.67,76,Wunderground v.1.15,2013-07-11 23:37:00,
2013-07-11 19:42:00,84.1,74.1,29.93,WSW,241,2.0,2.0,72,0.00,,,0.67,62,Wunderground v.1.15,2013-07-11 23:42:00,
2013-07-11 19:52:00,84.3,74.7,29.93,West,260,1.0,1.0,73,0.00,,,0.67,44,Wunderground v.1.15,2013-07-11 23:52:00,
2013-07-11 20:02:00,84.1,74.5,29.92,WSW,254,1.0,2.0,73,0.00,,,0.67,28,Wunderground v.1.15,2013-07-12 00:02:00,
2013-07-11 20:12:00,84.0,74.4,29.93,WSW,251,1.0,1.0,73,0.00,,,0.67,16,Wunderground v.1.15,2013-07-12 00:12:00,
2013-07-11 20:27:00,83.6,74.0,29.93,WSW,251,1.0,1.0,73,0.00,,,0.67,0,Wunderground v.1.15,2013-07-12 00:27:00,
2013-07-11 20:37:00,83.4,74.2,29.93,WSW,251,0.0,0.0,74,0.00,,,0.67,0,Wunderground v.1.15,2013-07-12 00:37:00,
2013-07-11 20:47:00,83.2,74.4,29.93,West,260,0.0,3.0,75,0.00,,,0.67,0,Wunderground v.1.15,2013-07-12 00:47:00,
2013-07-11 20:52:00,83.0,74.3,29.94,West,265,1.0,1.0,75,0.00,,,0.67,0,Wunderground v.1.15,2013-07-12 00:52:00,
2013-07-11 21:02:00,82.8,74.5,29.94,West,265,1.0,1.0,76,0.00,,,0.67,0,Wunderground v.1.15,2013-07-12 01:02:00,
2013-07-11 21:12:00,82.4,74.1,29.94,West,265,0.0,0.0,76,0.00,,,0.67,0,Wunderground v.1.15,2013-07-12 01:12:00,
2013-07-11 21:17:00,82.4,74.5,29.94,West,265,0.0,0.0,77,0.00,,,0.67,0,Wunderground v.1.15,2013-07-12 01:17:00,
2013-07-11 21:22:00,82.2,74.3,29.94,West,265,0.0,0.0,77,0.00,,,0.67,0,Wunderground v.1.15,2013-07-12 01:22:00,
2013-07-11 21:32:00,82.0,74.5,29.94,West,265,0.0,0.0,78,0.00,,,0.67,0,Wunderground v.1.15,2013-07-12 01:32:00,
2013-07-11 21:37:00,81.8,74.6,29.95,West,265,0.0,0.0,79,0.00,,,0.67,0,Wunderground v.1.15,2013-07-12 01:37:00,
2013-07-11 21:42:00,81.6,74.5,29.95,West,265,0.0,0.0,79,0.00,,,0.67,0,Wunderground v.1.15,2013-07-12 01:42:00,
2013-07-11 21:57:00,81.2,74.8,29.94,West,265,0.0,0.0,81,0.00,,,0.67,0,Wunderground v.1.15,2013-07-12 01:57:00,
2013-07-11 22:02:00,81.2,74.8,29.94,West,265,0.0,0.0,81,0.00,,,0.67,0,Wunderground v.1.15,2013-07-12 02:02:00,
2013-07-11 22:07:00,81.1,75.1,29.94,West,265,0.0,0.0,82,0.00,,,0.67,0,Wunderground v.1.15,2013-07-12 02:07:00,
2013-07-11 22:12:00,80.9,74.9,29.94,West,265,0.0,0.0,82,0.00,,,0.67,0,Wunderground v.1.15,2013-07-12 02:12:00,
2013-07-11 22:17:00,80.7,74.7,29.95,West,265,0.0,0.0,82,0.00,,,0.67,0,Wunderground v.1.15,2013-07-12 02:17:00,
2013-07-11 22:22:00,80.5,74.5,29.94,West,265,0.0,0.0,82,0.00,,,0.67,0,Wunderground v.1.15,2013-07-12 02:22:00,
2013-07-11 22:32:00,80.3,74.7,29.94,West,265,0.0,0.0,83,0.00,,,0.67,0,Wunderground v.1.15,2013-07-12 02:32:00,
2013-07-11 22:37:00,80.1,74.5,29.94,West,265,0.0,0.0,83,0.00,,,0.67,0,Wunderground v.1.15,2013-07-12 02:37:00,
2013-07-11 22:47:00,79.8,74.2,29.94,West,265,0.0,0.0,83,0.00,,,0.67,0,Wunderground v.1.15,2013-07-12 02:47:00,
2013-07-11 22:52:00,79.8,74.5,29.95,West,265,0.0,0.0,84,0.00,,,0.67,0,Wunderground v.1.15,2013-07-12 02:52:00,
2013-07-11 23:02:00,79.6,74.3,29.95,West,265,0.0,0.0,84,0.00,,,0.67,0,Wunderground v.1.15,2013-07-12 03:02:00,
2013-07-11 23:12:00,79.6,74.7,29.95,SSE,160,1.0,1.0,85,0.00,,,0.67,0,Wunderground v.1.15,2013-07-12 03:12:00,
2013-07-11 23:17:00,79.4,74.5,29.95,SSE,160,1.0,1.0,85,0.00,,,0.67,0,Wunderground v.1.15,2013-07-12 03:17:00,
2013-07-11 23:27:00,79.2,74.6,29.95,SSE,160,0.0,0.0,86,0.00,,,0.67,0,Wunderground v.1.15,2013-07-12 03:27:00,
2013-07-11 23:37:00,79.0,74.5,29.95,SSE,160,0.0,0.0,86,0.00,,,0.67,0,Wunderground v.1.15,2013-07-12 03:37:00,
2013-07-11 23:42:00,78.8,74.3,29.95,SSE,160,0.0,0.0,86,0.00,,,0.67,0,Wunderground v.1.15,2013-07-12 03:42:00,
2013-07-11 23:47:00,78.8,74.3,29.95,SSE,160,0.0,0.0,86,0.00,,,0.67,0,Wunderground v.1.15,2013-07-12 03:47:00,
2013-07-11 23:52:00,78.8,74.3,29.95,SSE,160,0.0,0.0,86,0.00,,,0.67,0,Wunderground v.1.15,2013-07-12 03:52:00,
2013-07-11 23:57:00,78.8,74.3,29.95,SSE,160,0.0,0.0,86,0.00,,,0.67,0,Wunderground v.1.15,2013-07-12 03:57:00,